BEE2JE EGJJ-EGJB

Flight info

Callsign BEE2JE
Flight time 0h 27m
Altitude 3500
Route GUR
Aircraft DH8D/M-SDE2E3FGRY/H

Departure

Time 2026-05-07 15:03
Airport Jersey Airport (EGJJ)

Arrival

Time 2026-05-07 15:30
Airport Guernsey Airport (EGJB)
Time Latitude Longitude Altitude Speed Heading
2026-05-07 14:38 49.20547 -2.19805 270 ft 0 kts 173°
2026-05-07 14:55 49.20546 -2.19805 269 ft 0 kts 173°
2026-05-07 14:55 49.20558 -2.19807 269 ft 2 kts 174°
2026-05-07 14:56 49.20573 -2.19810 269 ft 2 kts 174°
2026-05-07 14:56 49.20588 -2.19813 269 ft 2 kts 180°
2026-05-07 14:56 49.20602 -2.19805 269 ft 2 kts 225°
2026-05-07 14:56 49.20608 -2.19787 270 ft 0 kts 263°
2026-05-07 14:57 49.20608 -2.19783 270 ft 0 kts 264°
2026-05-07 15:00 49.20606 -2.19817 269 ft 4 kts 263°
2026-05-07 15:00 49.20602 -2.19860 269 ft 3 kts 263°
2026-05-07 15:00 49.20589 -2.19919 269 ft 7 kts 224°
2026-05-07 15:01 49.20537 -2.19932 269 ft 9 kts 193°
2026-05-07 15:01 49.20520 -2.20010 269 ft 9 kts 284°
2026-05-07 15:01 49.20565 -2.20089 269 ft 15 kts 352°
2026-05-07 15:01 49.20634 -2.20101 269 ft 3 kts 353°
2026-05-07 15:02 49.20660 -2.20106 269 ft 4 kts 353°
2026-05-07 15:02 49.20697 -2.20113 269 ft 5 kts 354°
2026-05-07 15:02 49.20739 -2.20114 269 ft 6 kts 28°
2026-05-07 15:02 49.20750 -2.20080 269 ft 0 kts 82°
2026-05-07 15:03 49.20777 -2.19749 271 ft 75 kts 81°
2026-05-07 15:03 49.20879 -2.18569 283 ft 140 kts 85°
2026-05-07 15:03 49.21028 -2.17025 681 ft 156 kts 83°
2026-05-07 15:03 49.21172 -2.15357 1236 ft 166 kts 83°
2026-05-07 15:04 49.21740 -2.13788 1816 ft 181 kts 45°
2026-05-07 15:04 49.22941 -2.13052 2339 ft 198 kts
2026-05-07 15:04 49.24276 -2.13599 2905 ft 208 kts 327°
2026-05-07 15:04 49.25294 -2.15273 3263 ft 228 kts 298°
2026-05-07 15:05 49.25980 -2.17561 3410 ft 244 kts 292°
2026-05-07 15:05 49.26646 -2.19935 3449 ft 243 kts 292°
2026-05-07 15:05 49.27164 -2.22372 3462 ft 240 kts 282°
2026-05-07 15:05 49.27470 -2.24904 3468 ft 238 kts 277°
2026-05-07 15:06 49.27711 -2.27388 3470 ft 237 kts 276°
2026-05-07 15:06 49.27956 -2.29905 3473 ft 240 kts 277°
2026-05-07 15:06 49.28199 -2.32414 3470 ft 237 kts 276°
2026-05-07 15:06 49.28437 -2.34871 3469 ft 235 kts 276°
2026-05-07 15:07 49.28679 -2.37326 3466 ft 232 kts 276°
2026-05-07 15:07 49.28919 -2.39775 3466 ft 231 kts 276°
2026-05-07 15:07 49.29161 -2.42236 3468 ft 235 kts 277°
2026-05-07 15:07 49.29404 -2.44739 3468 ft 240 kts 276°
2026-05-07 15:08 49.29648 -2.47272 3465 ft 244 kts 276°
2026-05-07 15:08 49.29816 -2.49871 3467 ft 247 kts 272°
2026-05-07 15:08 49.29922 -2.52500 3466 ft 250 kts 271°
2026-05-07 15:08 49.30033 -2.55140 3463 ft 249 kts 271°
2026-05-07 15:09 49.30149 -2.57796 3454 ft 247 kts 271°
2026-05-07 15:09 49.30269 -2.60422 3452 ft 246 kts 271°
2026-05-07 15:09 49.30385 -2.63008 3456 ft 245 kts 272°
2026-05-07 15:09 49.30502 -2.65615 3454 ft 244 kts 271°
2026-05-07 15:10 49.30621 -2.68160 3454 ft 242 kts 271°
2026-05-07 15:10 49.30740 -2.70723 3460 ft 240 kts 271°
2026-05-07 15:10 49.30857 -2.73290 3467 ft 241 kts 271°
2026-05-07 15:10 49.30971 -2.75841 3333 ft 245 kts 271°
2026-05-07 15:11 49.31083 -2.78484 2983 ft 249 kts 271°
2026-05-07 15:11 49.31194 -2.81117 2614 ft 250 kts 272°
2026-05-07 15:11 49.31659 -2.83677 2230 ft 255 kts 298°
2026-05-07 15:11 49.32878 -2.85603 2041 ft 246 kts 330°
2026-05-07 15:12 49.34444 -2.86327 1973 ft 230 kts 358°
2026-05-07 15:12 49.35997 -2.86409 1949 ft 217 kts
2026-05-07 15:12 49.37458 -2.86486 1939 ft 205 kts
2026-05-07 15:12 49.38837 -2.86566 1931 ft 192 kts
2026-05-07 15:13 49.40127 -2.86597 1941 ft 180 kts 11°
2026-05-07 15:13 49.41139 -2.85816 1918 ft 155 kts 57°
2026-05-07 15:13 49.41757 -2.84434 1952 ft 159 kts 61°
2026-05-07 15:13 49.42382 -2.83033 1954 ft 161 kts 60°
2026-05-07 15:14 49.42943 -2.81568 1950 ft 159 kts 74°
2026-05-07 15:14 49.43144 -2.79913 1957 ft 156 kts 91°
2026-05-07 15:14 49.43121 -2.78243 1961 ft 157 kts 96°
2026-05-07 15:14 49.43074 -2.76551 1973 ft 160 kts 95°
2026-05-07 15:15 49.43065 -2.74861 1982 ft 157 kts 92°
2026-05-07 15:15 49.43093 -2.73203 1940 ft 159 kts 91°
2026-05-07 15:15 49.43140 -2.71469 1647 ft 159 kts 90°
2026-05-07 15:15 49.43206 -2.69846 1405 ft 150 kts 89°
2026-05-07 15:16 49.43266 -2.68282 1186 ft 141 kts 90°
2026-05-07 15:16 49.43312 -2.66841 997 ft 132 kts 90°
2026-05-07 15:16 49.43345 -2.65461 826 ft 126 kts 90°
2026-05-07 15:16 49.43379 -2.64142 682 ft 124 kts 90°
2026-05-07 15:17 49.43429 -2.62819 526 ft 123 kts 89°
2026-05-07 15:17 49.43465 -2.61518 363 ft 121 kts 86°
2026-05-07 15:17 49.43495 -2.60266 322 ft 115 kts 88°
2026-05-07 15:17 49.43440 -2.58973 949 ft 123 kts 102°
2026-05-07 15:18 49.43252 -2.57644 1466 ft 140 kts 107°
2026-05-07 15:18 49.42995 -2.56153 2142 ft 152 kts 108°
2026-05-07 15:18 49.42263 -2.55032 2819 ft 163 kts 160°
2026-05-07 15:18 49.41168 -2.55392 3539 ft 178 kts 212°
2026-05-07 15:19 49.40523 -2.56995 4365 ft 190 kts 252°
2026-05-07 15:19 49.40413 -2.58989 5354 ft 187 kts 264°
2026-05-07 15:19 49.40382 -2.60937 6256 ft 190 kts 269°
2026-05-07 15:19 49.40551 -2.62925 7158 ft 192 kts 277°
2026-05-07 15:20 49.40774 -2.64905 8131 ft 189 kts 274°
2026-05-07 15:20 49.40877 -2.66845 9080 ft 187 kts 271°
2026-05-07 15:20 49.40987 -2.68783 10012 ft 185 kts 272°
2026-05-07 15:20 49.41101 -2.70729 10919 ft 185 kts 273°
2026-05-07 15:21 49.41234 -2.72529 11595 ft 162 kts 273°
2026-05-07 15:21 49.41363 -2.74173 11945 ft 155 kts 273°
2026-05-07 15:21 49.41499 -2.75988 11516 ft 194 kts 272°
2026-05-07 15:21 49.41650 -2.78228 10348 ft 227 kts 272°
2026-05-07 15:22 49.41786 -2.80629 9689 ft 230 kts 267°
2026-05-07 15:22 49.41678 -2.83080 9076 ft 231 kts 261°
2026-05-07 15:22 49.41513 -2.85523 8468 ft 234 kts 261°
2026-05-07 15:22 49.41347 -2.88014 7860 ft 237 kts 261°
2026-05-07 15:23 49.41179 -2.90525 7243 ft 240 kts 261°
2026-05-07 15:23 49.40943 -2.93056 6609 ft 240 kts 251°
2026-05-07 15:23 49.40113 -2.95193 5982 ft 235 kts 221°
2026-05-07 15:23 49.38713 -2.96385 5377 ft 234 kts 192°
2026-05-07 15:24 49.37118 -2.96339 4751 ft 232 kts 163°
2026-05-07 15:24 49.35767 -2.95079 4134 ft 232 kts 134°
2026-05-07 15:24 49.34999 -2.92914 3509 ft 237 kts 106°
2026-05-07 15:24 49.35045 -2.90420 3028 ft 238 kts 76°
2026-05-07 15:25 49.35878 -2.88261 2626 ft 235 kts 52°
2026-05-07 15:25 49.37086 -2.86627 2255 ft 231 kts 41°
2026-05-07 15:25 49.38336 -2.85186 2047 ft 215 kts 40°
2026-05-07 15:25 49.39484 -2.83906 1974 ft 193 kts 39°
2026-05-07 15:26 49.40478 -2.82760 1953 ft 167 kts 48°
2026-05-07 15:26 49.41262 -2.81522 1964 ft 155 kts 51°
2026-05-07 15:26 49.41993 -2.80372 1938 ft 147 kts 51°
2026-05-07 15:26 49.42699 -2.79268 1942 ft 143 kts 47°
2026-05-07 15:27 49.43343 -2.78167 1927 ft 134 kts 73°
2026-05-07 15:27 49.43440 -2.76799 1878 ft 123 kts 102°
2026-05-07 15:27 49.43268 -2.75551 1943 ft 121 kts 106°
2026-05-07 15:27 49.43113 -2.74270 1969 ft 126 kts 101°
2026-05-07 15:28 49.43047 -2.72862 1795 ft 133 kts 94°
2026-05-07 15:28 49.43090 -2.71464 1597 ft 130 kts 89°
2026-05-07 15:28 49.43170 -2.70114 1414 ft 125 kts 88°
2026-05-07 15:28 49.43236 -2.68801 1244 ft 120 kts 90°
2026-05-07 15:29 49.43274 -2.67537 1110 ft 120 kts 91°
2026-05-07 15:29 49.43311 -2.66253 953 ft 119 kts 89°
2026-05-07 15:29 49.43384 -2.64993 812 ft 117 kts 89°
2026-05-07 15:29 49.43413 -2.63753 647 ft 115 kts 90°
2026-05-07 15:30 49.43444 -2.62520 472 ft 114 kts 90°
2026-05-07 15:30 49.43469 -2.61327 325 ft 110 kts 89°
2026-05-07 15:30 49.43494 -2.60278 317 ft 75 kts 87°
2026-05-07 15:30 49.43512 -2.59650 334 ft 46 kts 87°
2026-05-07 15:31 49.43520 -2.59325 337 ft 16 kts 87°
2026-05-07 15:31 49.43508 -2.59219 335 ft 8 kts 137°
2026-05-07 15:31 49.43462 -2.59201 335 ft 6 kts 175°
2026-05-07 15:31 49.43421 -2.59195 335 ft 4 kts 178°
2026-05-07 15:32 49.43395 -2.59203 335 ft 4 kts 197°
2026-05-07 15:32 49.43383 -2.59217 335 ft 0 kts 230°
2026-05-07 15:32 49.43373 -2.59240 335 ft 4 kts 247°
2026-05-07 15:32 49.43370 -2.59307 337 ft 7 kts 268°
2026-05-07 15:33 49.43367 -2.59414 337 ft 10 kts 268°
2026-05-07 15:33 49.43364 -2.59503 337 ft 6 kts 267°
2026-05-07 15:33 49.43363 -2.59570 336 ft 5 kts 268°
2026-05-07 15:33 49.43362 -2.59627 335 ft 4 kts 269°
2026-05-07 15:34 49.43360 -2.59672 334 ft 3 kts 251°
2026-05-07 15:34 49.43338 -2.59692 333 ft 4 kts 172°
2026-05-07 15:34 49.43319 -2.59689 334 ft 1 kts 176°
2026-05-07 15:34 49.43303 -2.59688 334 ft 4 kts 177°
2026-05-07 15:35 49.43282 -2.59688 335 ft 2 kts 179°
2026-05-07 15:35 49.43270 -2.59687 335 ft 1 kts 176°
2026-05-07 15:35 49.43263 -2.59687 335 ft 0 kts 176°
2026-05-07 15:35 49.43260 -2.59687 335 ft 0 kts 175°